createdAt,value
2022-12-11T00:02:11.555Z,101200.75
2022-12-11T00:04:38.912Z,101219.34
2022-12-11T00:07:05.524Z,101212.50
2022-12-11T00:09:32.275Z,101211.34
2022-12-11T00:11:58.852Z,101193.81
2022-12-11T00:14:25.441Z,101209.44
2022-12-11T00:16:52.146Z,101202.34
2022-12-11T00:19:21.095Z,101207.56
2022-12-11T00:21:47.644Z,101191.75
2022-12-11T00:24:14.307Z,101198.66
2022-12-11T00:26:40.881Z,101200.41
2022-12-11T00:29:09.040Z,101199.47
2022-12-11T00:31:38.021Z,101204.13
2022-12-11T00:34:04.586Z,101211.00
2022-12-11T00:36:31.169Z,101204.84
2022-12-11T00:38:58.010Z,101210.25
2022-12-11T00:41:24.686Z,101203.09
2022-12-11T00:43:53.467Z,101206.75
2022-12-11T00:46:20.072Z,101208.41
2022-12-11T00:48:50.137Z,101203.09
2022-12-11T00:51:17.591Z,101206.75
2022-12-11T00:53:44.369Z,101178.78
2022-12-11T00:56:20.023Z,101203.88
2022-12-11T00:58:49.639Z,101192.34
2022-12-11T01:01:20.150Z,101197.56
2022-12-11T01:03:47.107Z,101160.81
2022-12-11T01:06:16.194Z,101179.06
2022-12-11T01:08:43.166Z,101193.03
2022-12-11T01:11:13.366Z,101190.44
2022-12-11T01:13:43.017Z,101187.13
2022-12-11T01:16:11.853Z,101192.19
2022-12-11T01:18:39.023Z,101200.09
2022-12-11T01:21:11.430Z,101183.34
2022-12-11T01:23:39.260Z,101195.56
2022-12-11T01:26:13.985Z,101201.72
2022-12-11T01:28:41.486Z,101185.84
2022-12-11T01:31:21.931Z,101185.13
2022-12-11T01:33:48.532Z,101191.41
2022-12-11T01:36:20.539Z,101187.03
2022-12-11T01:38:48.611Z,101196.53
2022-12-11T01:41:17.118Z,101198.94
2022-12-11T01:44:06.889Z,101205.22
2022-12-11T01:46:36.567Z,101196.31
2022-12-11T01:49:07.415Z,101194.53
2022-12-11T01:51:40.338Z,101184.72
2022-12-11T01:54:11.449Z,101175.84
2022-12-11T01:56:39.886Z,101168.72
2022-12-11T01:59:11.168Z,101186.03
2022-12-11T02:01:45.368Z,101186.03
2022-12-11T02:04:13.588Z,101184.19
2022-12-11T02:06:43.700Z,101179.84
2022-12-11T02:09:17.159Z,101175.53
2022-12-11T02:11:55.073Z,101182.28
2022-12-11T02:14:40.466Z,101175.94
2022-12-11T02:17:21.935Z,101169.88
2022-12-11T02:20:19.226Z,101180.44
2022-12-11T02:23:30.363Z,101175.94
2022-12-11T02:26:38.484Z,101174.19
2022-12-11T02:29:18.015Z,101165.59
2022-12-11T02:31:54.028Z,101160.13
2022-12-11T02:34:28.801Z,101162.91
2022-12-11T02:37:03.242Z,101172.44
2022-12-11T02:39:32.408Z,101170.56
2022-12-11T02:42:00.435Z,101162.56
2022-12-11T02:44:30.644Z,101163.44
2022-12-11T02:46:58.395Z,101167.88
2022-12-11T02:49:27.875Z,101168.81
2022-12-11T02:51:59.191Z,101157.28
2022-12-11T02:54:30.427Z,101147.63
2022-12-11T02:57:11.564Z,101150.16
2022-12-11T02:59:47.246Z,101134.72
2022-12-11T03:02:15.849Z,101158.03
2022-12-11T03:04:44.292Z,101146.75
2022-12-11T03:07:17.269Z,101151.97
2022-12-11T03:09:46.176Z,101152.16
2022-12-11T03:12:17.004Z,101144.16
2022-12-11T03:14:44.239Z,101139.72
2022-12-11T03:17:19.598Z,101147.63
2022-12-11T03:20:13.517Z,101150.41
2022-12-11T03:22:54.091Z,101141.56
2022-12-11T03:25:34.744Z,101146.16
2022-12-11T03:28:19.431Z,101133.06
2022-12-11T03:30:49.794Z,101131.72
2022-12-11T03:33:26.599Z,101123.94
2022-12-11T03:35:59.401Z,101138.94
2022-12-11T03:38:37.746Z,101143.47
2022-12-11T03:41:07.824Z,101151.63
2022-12-11T03:43:35.424Z,101148.94
2022-12-11T03:46:05.163Z,101135.66
2022-12-11T03:48:36.055Z,101146.44
2022-12-11T03:51:06.402Z,101132.19
2022-12-11T03:53:35.362Z,101134.63
2022-12-11T03:56:04.629Z,101135.50
2022-12-11T03:58:31.887Z,101140.69
2022-12-11T04:00:58.450Z,101110.84
2022-12-11T04:03:27.316Z,101124.63
2022-12-11T04:05:55.717Z,101129.94
2022-12-11T04:08:23.446Z,101127.31
2022-12-11T04:11:13.654Z,101128.09
2022-12-11T04:13:41.549Z,101117.75
2022-12-11T04:16:08.532Z,101128.28
2022-12-11T04:18:54.266Z,101128.28
2022-12-11T04:21:52.918Z,101134.63
2022-12-11T04:24:19.840Z,101122.38
2022-12-11T04:26:47.463Z,101119.00
2022-12-11T04:29:15.005Z,101132.19
2022-12-11T04:31:41.786Z,101119.25
2022-12-11T04:34:08.369Z,101132.28
2022-12-11T04:36:35.008Z,101129.69
2022-12-11T04:39:01.607Z,101127.06
2022-12-11T04:41:28.734Z,101134.97
2022-12-11T04:43:55.355Z,101133.31
2022-12-11T04:46:24.504Z,101133.31
2022-12-11T04:48:57.358Z,101122.72
2022-12-11T04:51:25.338Z,101125.50
2022-12-11T04:53:52.035Z,101122.22
2022-12-11T04:56:19.059Z,101127.50
2022-12-11T04:58:47.482Z,101112.59
2022-12-11T05:01:19.169Z,101112.50
2022-12-11T05:03:47.170Z,101123.41
2022-12-11T05:06:14.682Z,101116.41
2022-12-11T05:08:42.733Z,101103.38
2022-12-11T05:11:12.171Z,101114.66
2022-12-11T05:13:41.654Z,101116.31
2022-12-11T05:16:09.866Z,101112.75
2022-12-11T05:18:36.637Z,101117.94
2022-12-11T05:21:15.031Z,101129.59
2022-12-11T05:23:42.823Z,101120.53
2022-12-11T05:26:13.526Z,101105.63
2022-12-11T05:28:40.593Z,101119.84
2022-12-11T05:31:19.051Z,101106.56
2022-12-11T05:33:46.719Z,101102.50
2022-12-11T05:36:24.979Z,101098.69
2022-12-11T05:38:55.551Z,101108.16
2022-12-11T05:41:24.401Z,101093.28
2022-12-11T05:43:51.363Z,101105.47
2022-12-11T05:46:22.215Z,101108.16
2022-12-11T05:48:50.616Z,101097.47
2022-12-11T05:51:18.402Z,101106.41
2022-12-11T05:53:47.153Z,101096.78
2022-12-11T05:56:16.263Z,101103.63
2022-12-11T05:58:44.061Z,101107.38
2022-12-11T06:01:16.836Z,101110.66
2022-12-11T06:03:43.878Z,101121.44
2022-12-11T06:06:12.585Z,101125.06
2022-12-11T06:08:39.392Z,101118.91
2022-12-11T06:11:06.356Z,101120.72
2022-12-11T06:13:33.576Z,101123.41
2022-12-11T06:16:07.664Z,101115.25
2022-12-11T06:18:39.109Z,101113.53
2022-12-11T06:21:29.980Z,101105.91
2022-12-11T06:23:58.411Z,101111.00
2022-12-11T06:26:27.896Z,101110.66
2022-12-11T06:28:54.580Z,101100.09
2022-12-11T06:31:21.266Z,101112.47
2022-12-11T06:33:48.432Z,101111.53
2022-12-11T06:36:17.614Z,101115.06
2022-12-11T06:38:47.822Z,101111.69
2022-12-11T06:41:14.894Z,101114.91
2022-12-11T06:43:43.057Z,101113.00
2022-12-11T06:46:15.561Z,101107.00
2022-12-11T06:48:44.722Z,101105.88
2022-12-11T06:51:14.762Z,101112.03
2022-12-11T06:53:41.713Z,101113.78
2022-12-11T06:56:17.335Z,101108.41
2022-12-11T06:58:46.139Z,101105.63
2022-12-11T07:01:22.038Z,101103.03
2022-12-11T07:03:49.045Z,101102.03
2022-12-11T07:06:16.162Z,101104.72
2022-12-11T07:08:43.402Z,101101.97
2022-12-11T07:11:12.755Z,101108.22
2022-12-11T07:13:39.644Z,101106.47
2022-12-11T07:16:11.085Z,101110.75
2022-12-11T07:18:39.565Z,101109.00
2022-12-11T07:21:07.457Z,101102.03
2022-12-11T07:23:35.048Z,101109.09
2022-12-11T07:26:39.525Z,101105.53
2022-12-11T07:29:08.508Z,101122.38
2022-12-11T07:31:35.109Z,101123.22
2022-12-11T07:34:05.327Z,101121.41
2022-12-11T07:36:32.398Z,101119.59
2022-12-11T07:38:59.836Z,101130.19
2022-12-11T07:41:28.747Z,101124.88
2022-12-11T07:43:56.001Z,101130.94
2022-12-11T07:46:24.871Z,101120.44
2022-12-11T07:48:53.594Z,101121.22
2022-12-11T07:51:27.797Z,101127.22
2022-12-11T07:53:59.449Z,101116.63
2022-12-11T07:56:27.737Z,101128.94
2022-12-11T07:58:54.856Z,101121.94
2022-12-11T08:01:27.206Z,101128.09
2022-12-11T08:03:54.695Z,101118.25
2022-12-11T08:06:27.088Z,101120.69
2022-12-11T08:08:54.678Z,101129.53
2022-12-11T08:11:21.419Z,101129.53
2022-12-11T08:13:48.001Z,101133.88
2022-12-11T08:16:17.881Z,101111.16
2022-12-11T08:18:45.810Z,101131.28
2022-12-11T08:21:21.031Z,101125.72
2022-12-11T08:23:47.979Z,101127.47
2022-12-11T08:26:24.028Z,101130.34
2022-12-11T08:28:53.801Z,101122.16
2022-12-11T08:31:20.810Z,101135.47
2022-12-11T08:33:48.401Z,101126.56
2022-12-11T08:36:17.768Z,101118.75
2022-12-11T08:38:44.798Z,101128.16
2022-12-11T08:41:22.255Z,101122.75
2022-12-11T08:43:55.137Z,101121.19
2022-12-11T08:46:29.668Z,101112.25
2022-12-11T08:48:58.943Z,101129.00
2022-12-11T08:51:27.998Z,101127.06
2022-12-11T08:53:57.177Z,101115.63
2022-12-11T08:56:24.112Z,101124.47
2022-12-11T08:58:51.795Z,101111.81
2022-12-11T09:01:22.123Z,101125.19
2022-12-11T09:03:49.692Z,101120.66
2022-12-11T09:06:21.871Z,101112.50
2022-12-11T09:08:52.887Z,101109.78
2022-12-11T09:11:25.955Z,101110.75
2022-12-11T09:13:52.738Z,101112.41
2022-12-11T09:16:21.525Z,101117.78
2022-12-11T09:18:50.242Z,101110.56
2022-12-11T09:21:19.805Z,101102.50
2022-12-11T09:23:48.988Z,101112.13
2022-12-11T09:26:18.091Z,101116.44
2022-12-11T09:28:46.935Z,101111.06
2022-12-11T09:31:13.846Z,101116.34
2022-12-11T09:33:40.428Z,101118.97
2022-12-11T09:36:12.652Z,101112.63
2022-12-11T09:38:44.889Z,101119.75
2022-12-11T09:41:17.672Z,101119.75
2022-12-11T09:43:58.967Z,101112.63
2022-12-11T09:46:30.587Z,101082.09
2022-12-11T09:49:03.272Z,101110.53
2022-12-11T09:51:39.579Z,101105.03
2022-12-11T09:54:06.734Z,101104.19
2022-12-11T09:56:42.683Z,101106.88
2022-12-11T09:59:18.432Z,101105.03
2022-12-11T10:02:13.885Z,101095.53
2022-12-11T10:04:49.455Z,101095.13
2022-12-11T10:08:00.745Z,101103.28
2022-12-11T10:10:30.326Z,101101.31
2022-12-11T10:13:15.264Z,101104.78
2022-12-11T10:15:54.388Z,101103.03
2022-12-11T10:18:24.292Z,101087.44
2022-12-11T10:20:52.960Z,101101.09
2022-12-11T10:23:35.589Z,101092.16
2022-12-11T10:26:16.084Z,101098.13
2022-12-11T10:28:45.342Z,101098.84
2022-12-11T10:31:39.839Z,101097.84
2022-12-11T10:34:19.354Z,101084.47
2022-12-11T10:36:45.989Z,101092.47
2022-12-11T10:39:21.437Z,101093.13
2022-12-11T10:41:55.229Z,101076.38
2022-12-11T10:44:27.718Z,101086.03
2022-12-11T10:47:13.980Z,101089.41
2022-12-11T10:49:55.274Z,101087.56
2022-12-11T10:52:54.363Z,101083.16
2022-12-11T10:55:28.627Z,101089.22
2022-12-11T10:57:59.912Z,101076.78
2022-12-11T11:00:39.652Z,101060.03
2022-12-11T11:03:25.698Z,101084.41
2022-12-11T11:06:25.886Z,101084.50
2022-12-11T11:08:58.182Z,101078.25
2022-12-11T11:11:36.716Z,101077.25
2022-12-11T11:14:20.285Z,101069.19
2022-12-11T11:16:48.882Z,101076.13
2022-12-11T11:19:36.004Z,101060.31
2022-12-11T11:22:13.509Z,101058.91
2022-12-11T11:24:44.246Z,101072.56
2022-12-11T11:27:34.944Z,101068.31
2022-12-11T11:30:05.609Z,101064.88
2022-12-11T11:32:39.012Z,101064.41
2022-12-11T11:35:26.909Z,101068.81
2022-12-11T11:38:13.172Z,101065.06
2022-12-11T11:40:49.228Z,101066.91
2022-12-11T11:43:37.535Z,101061.50
2022-12-11T11:46:10.470Z,101057.84
2022-12-11T11:48:45.841Z,101054.38
2022-12-11T11:51:29.288Z,101054.38
2022-12-11T11:54:00.018Z,101056.00
2022-12-11T11:56:31.721Z,101051.31
2022-12-11T11:59:22.057Z,101062.19
2022-12-11T12:01:49.400Z,101060.25
2022-12-11T12:04:16.177Z,101049.38
2022-12-11T12:07:22.039Z,101054.47
2022-12-11T12:10:17.666Z,101047.16
2022-12-11T12:13:30.199Z,101049.56
2022-12-11T12:16:00.915Z,101046.47
2022-12-11T12:18:33.918Z,101048.00
2022-12-11T12:21:25.122Z,101040.69
2022-12-11T12:24:10.690Z,101043.41
2022-12-11T12:26:41.453Z,101032.59
2022-12-11T12:29:32.020Z,101024.28
2022-12-11T12:32:46.447Z,101020.25
2022-12-11T12:35:24.019Z,101021.56
2022-12-11T12:38:21.692Z,101013.28
2022-12-11T12:41:07.202Z,101001.28
2022-12-11T12:43:55.791Z,101017.81
2022-12-11T12:46:34.265Z,101017.91
2022-12-11T12:49:04.767Z,101021.38
2022-12-11T12:51:32.072Z,101025.16
2022-12-11T12:54:01.596Z,101028.81
2022-12-11T12:56:30.981Z,101024.59
2022-12-11T12:58:57.862Z,101012.25
2022-12-11T13:01:29.674Z,101018.41
2022-12-11T13:04:20.744Z,101012.81
2022-12-11T13:06:54.857Z,101020.81
2022-12-11T13:09:28.629Z,101008.28
2022-12-11T13:11:57.786Z,101004.81
2022-12-11T13:14:28.796Z,101010.41
2022-12-11T13:17:21.765Z,101017.94
2022-12-11T13:19:52.992Z,101009.19
2022-12-11T13:22:24.891Z,101008.91
2022-12-11T13:24:54.574Z,101027.41
2022-12-11T13:27:45.176Z,101011.50
2022-12-11T13:30:14.605Z,101019.59
2022-12-11T13:33:02.176Z,101007.47
2022-12-11T13:35:30.470Z,101023.53
2022-12-11T13:38:06.006Z,101013.19
2022-12-11T13:40:40.259Z,101018.25
2022-12-11T13:43:29.186Z,101031.06
2022-12-11T13:46:01.189Z,101033.75
2022-12-11T13:48:34.895Z,101021.03
2022-12-11T13:51:02.840Z,101023.53
2022-12-11T13:53:29.600Z,101031.81
2022-12-11T13:55:58.082Z,101024.00
2022-12-11T13:58:25.185Z,101030.50
2022-12-11T14:01:00.912Z,101032.34
2022-12-11T14:03:30.105Z,101019.22
2022-12-11T14:05:57.149Z,101027.78
2022-12-11T14:08:34.231Z,101030.78
2022-12-11T14:11:03.362Z,101019.44
2022-12-11T14:13:35.010Z,101037.13
2022-12-11T14:16:02.943Z,101029.22
2022-12-11T14:18:35.393Z,101030.97
2022-12-11T14:21:06.671Z,101030.97
2022-12-11T14:23:36.034Z,101028.38
2022-12-11T14:26:16.419Z,101025.88
2022-12-11T14:28:46.320Z,101024.91
2022-12-11T14:31:19.495Z,101019.81
2022-12-11T14:33:54.279Z,101029.44
2022-12-11T14:36:21.317Z,101027.50
2022-12-11T14:38:55.263Z,101031.81
2022-12-11T14:41:27.079Z,101040.00
2022-12-11T14:44:00.545Z,101034.03
2022-12-11T14:46:36.748Z,101041.09
2022-12-11T14:49:16.740Z,101020.19
2022-12-11T14:51:44.608Z,101035.31
2022-12-11T14:54:21.389Z,101042.22
2022-12-11T14:56:48.105Z,101035.22
2022-12-11T14:59:28.505Z,101038.88
2022-12-11T15:02:04.607Z,101054.19
2022-12-11T15:04:33.356Z,101052.63
2022-12-11T15:07:02.410Z,101050.81
2022-12-11T15:09:36.413Z,101048.41
2022-12-11T15:12:19.704Z,101037.25
2022-12-11T15:14:55.879Z,101051.38
2022-12-11T15:17:24.004Z,101041.94
2022-12-11T15:20:00.475Z,101047.94
2022-12-11T15:22:32.050Z,101057.91
2022-12-11T15:25:01.584Z,101053.88
2022-12-11T15:27:28.127Z,101059.84
2022-12-11T15:29:54.830Z,101061.69
2022-12-11T15:32:21.905Z,101059.19
2022-12-11T15:34:54.554Z,101069.88
2022-12-11T15:37:31.649Z,101069.09
2022-12-11T15:40:00.817Z,101065.78
2022-12-11T15:42:42.878Z,101064.00
2022-12-11T15:45:16.986Z,101071.19
2022-12-11T15:47:46.768Z,101065.13
2022-12-11T15:50:16.795Z,101072.25
2022-12-11T15:52:46.528Z,101067.50
2022-12-11T15:55:13.993Z,101070.69
2022-12-11T15:57:45.780Z,101068.09
2022-12-11T16:00:19.688Z,101067.31
2022-12-11T16:02:49.078Z,101072.81
2022-12-11T16:05:16.072Z,101066.94
2022-12-11T16:07:42.868Z,101077.78
2022-12-11T16:10:16.092Z,101064.41
2022-12-11T16:12:45.729Z,101077.88
2022-12-11T16:15:17.469Z,101080.66
2022-12-11T16:17:48.416Z,101087.03
2022-12-11T16:20:15.119Z,101081.34
2022-12-11T16:22:41.690Z,101078.66
2022-12-11T16:25:08.476Z,101075.00
2022-12-11T16:27:39.944Z,101073.19
2022-12-11T16:30:06.900Z,101078.56
2022-12-11T16:32:33.670Z,101061.22
2022-12-11T16:35:02.489Z,101068.84
2022-12-11T16:37:31.753Z,101067.97
2022-12-11T16:39:58.292Z,101069.91
2022-12-11T16:42:24.914Z,101072.50
2022-12-11T16:44:51.544Z,101063.94
2022-12-11T16:47:18.107Z,101055.25
2022-12-11T16:49:50.298Z,101069.31
2022-12-11T16:52:21.935Z,101071.81
2022-12-11T16:54:49.030Z,101063.94
2022-12-11T16:57:15.721Z,101061.91
2022-12-11T16:59:44.792Z,101049.69
2022-12-11T17:02:11.766Z,101058.34
2022-12-11T17:04:43.426Z,101063.84
2022-12-11T17:07:10.028Z,101058.44
2022-12-11T17:09:36.726Z,101060.16
2022-12-11T17:12:03.634Z,101065.47
2022-12-11T17:14:30.270Z,101064.50
2022-12-11T17:16:59.634Z,101066.25
2022-12-11T17:19:26.631Z,101047.09
2022-12-11T17:21:54.440Z,101068.94
2022-12-11T17:24:21.047Z,101056.53
2022-12-11T17:26:49.756Z,101057.59
2022-12-11T17:29:16.285Z,101067.97
2022-12-11T17:31:45.397Z,101069.72
2022-12-11T17:34:14.228Z,101071.47
2022-12-11T17:36:40.831Z,101069.72
2022-12-11T17:39:07.467Z,101067.03
2022-12-11T17:41:34.027Z,101063.28
2022-12-11T17:44:00.674Z,101050.63
2022-12-11T17:46:27.305Z,101068.84
2022-12-11T17:48:55.045Z,101065.19
2022-12-11T17:51:24.002Z,101070.66
2022-12-11T17:53:52.019Z,101071.56
2022-12-11T17:56:18.608Z,101065.28
2022-12-11T17:58:47.979Z,101064.59
2022-12-11T18:01:15.161Z,101067.75
2022-12-11T18:03:44.619Z,101060.25
2022-12-11T18:06:14.458Z,101071.69
2022-12-11T18:08:42.166Z,101069.09
2022-12-11T18:11:14.362Z,101064.91
2022-12-11T18:13:41.705Z,101065.81
2022-12-11T18:16:21.101Z,101073.72
2022-12-11T18:18:48.834Z,101077.25
2022-12-11T18:21:19.554Z,101063.19
2022-12-11T18:23:46.496Z,101065.97
2022-12-11T18:26:14.680Z,101067.69
2022-12-11T18:28:42.343Z,101073.41
2022-12-11T18:31:09.824Z,101064.91
2022-12-11T18:33:38.246Z,101058.69
2022-12-11T18:36:06.203Z,101065.22
2022-12-11T18:38:33.668Z,101074.19
2022-12-11T18:41:09.710Z,101077.75
2022-12-11T18:43:36.964Z,101060.25
2022-12-11T18:46:12.853Z,101068.91
2022-12-11T18:48:43.293Z,101061.09
2022-12-11T18:51:14.734Z,101069.84
2022-12-11T18:53:41.381Z,101062.75
2022-12-11T18:56:14.304Z,101056.47
2022-12-11T18:58:41.109Z,101066.41
2022-12-11T19:01:28.906Z,101059.53
2022-12-11T19:04:02.659Z,101070.22
2022-12-11T19:06:30.397Z,101055.41
2022-12-11T19:08:57.936Z,101055.66
2022-12-11T19:11:26.964Z,101063.06
2022-12-11T19:13:56.571Z,101056.81
2022-12-11T19:16:26.257Z,101059.22
2022-12-11T19:18:54.243Z,101047.75
2022-12-11T19:21:23.375Z,101060.09
2022-12-11T19:23:49.914Z,101060.97
2022-12-11T19:26:19.901Z,101061.91
2022-12-11T19:28:47.483Z,101064.31
2022-12-11T19:31:16.825Z,101051.22
2022-12-11T19:33:44.150Z,101051.31
2022-12-11T19:36:13.966Z,101058.53
2022-12-11T19:38:42.575Z,101060.19
2022-12-11T19:41:16.766Z,101064.59
2022-12-11T19:43:43.917Z,101070.78
2022-12-11T19:46:11.731Z,101062.88
2022-12-11T19:48:41.299Z,101066.34
2022-12-11T19:51:13.090Z,101070.50
2022-12-11T19:53:41.739Z,101065.13
2022-12-11T19:56:11.539Z,101066.84
2022-12-11T19:58:38.695Z,101073.09
2022-12-11T20:01:06.156Z,101053.31
2022-12-11T20:03:33.703Z,101075.78
2022-12-11T20:06:04.987Z,101074.06
2022-12-11T20:08:47.737Z,101069.53
2022-12-11T20:11:19.034Z,101067.09
2022-12-11T20:13:52.066Z,101077.63
2022-12-11T20:16:33.320Z,101042.06
2022-12-11T20:19:06.112Z,101073.97
2022-12-11T20:21:32.734Z,101083.84
2022-12-11T20:23:59.815Z,101079.53
2022-12-11T20:26:26.414Z,101084.66
2022-12-11T20:28:53.505Z,101081.16
2022-12-11T20:31:24.301Z,101091.06
2022-12-11T20:33:52.609Z,101088.56
2022-12-11T20:36:22.658Z,101089.44
2022-12-11T20:38:50.035Z,101086.94
2022-12-11T20:41:19.423Z,101075.84
2022-12-11T20:43:46.509Z,101087.88
2022-12-11T20:46:15.232Z,101077.63
2022-12-11T20:48:45.209Z,101089.81
2022-12-11T20:51:13.905Z,101079.38
2022-12-11T20:53:41.656Z,101087.19
2022-12-11T20:56:10.185Z,101097.00
2022-12-11T20:58:36.872Z,101075.94
2022-12-11T21:01:12.731Z,101071.56
2022-12-11T21:03:42.115Z,101087.56
2022-12-11T21:06:18.032Z,101087.72
2022-12-11T21:08:46.909Z,101088.66
2022-12-11T21:11:13.506Z,101085.13
2022-12-11T21:13:40.613Z,101090.34
2022-12-11T21:16:08.514Z,101081.50
2022-12-11T21:18:35.260Z,101092.94
2022-12-11T21:21:04.682Z,101082.53
2022-12-11T21:23:31.359Z,101071.44
2022-12-11T21:25:57.926Z,101082.69
2022-12-11T21:28:24.503Z,101096.66
2022-12-11T21:30:51.205Z,101097.47
2022-12-11T21:33:17.720Z,101103.63
2022-12-11T21:35:44.482Z,101098.31
2022-12-11T21:38:11.111Z,101095.72
2022-12-11T21:40:37.712Z,101100.06
2022-12-11T21:43:04.263Z,101085.97
2022-12-11T21:46:00.435Z,101097.47
2022-12-11T21:48:24.280Z,101075.84
2022-12-11T21:50:53.276Z,101103.69
2022-12-11T21:53:19.873Z,101102.75
2022-12-11T21:55:46.394Z,101089.56
2022-12-11T21:58:12.997Z,101091.38
2022-12-11T22:00:42.085Z,101099.97
2022-12-11T22:03:08.761Z,101103.53
2022-12-11T22:05:35.366Z,101090.34
2022-12-11T22:08:02.280Z,101096.56
2022-12-11T22:10:29.669Z,101090.41
2022-12-11T22:12:56.404Z,101097.63
2022-12-11T22:15:23.192Z,101096.94
2022-12-11T22:17:49.788Z,101103.19
2022-12-11T22:20:16.413Z,101113.97
2022-12-11T22:22:43.035Z,101112.38
2022-12-11T22:25:10.041Z,101106.50
2022-12-11T22:27:36.856Z,101112.13
2022-12-11T22:30:06.321Z,101105.97
2022-12-11T22:32:32.876Z,101106.41
2022-12-11T22:34:59.456Z,101106.31
2022-12-11T22:37:26.066Z,101104.78
2022-12-11T22:39:52.943Z,101107.81
2022-12-11T22:42:19.589Z,101114.13
2022-12-11T22:44:46.139Z,101104.69
2022-12-11T22:47:12.979Z,101114.47
2022-12-11T22:49:42.149Z,101103.34
2022-12-11T22:52:08.929Z,101101.13
2022-12-11T22:54:39.219Z,101103.00
2022-12-11T22:57:05.898Z,101104.38
2022-12-11T22:59:32.546Z,101104.88
2022-12-11T23:01:59.699Z,101105.13
2022-12-11T23:04:29.505Z,101093.16
2022-12-11T23:06:56.031Z,101115.78
2022-12-11T23:09:22.682Z,101104.38
2022-12-11T23:11:49.211Z,101105.69
2022-12-11T23:14:17.167Z,101093.84
2022-12-11T23:16:44.598Z,101100.25
2022-12-11T23:19:12.346Z,101099.53
2022-12-11T23:21:39.156Z,101105.22
2022-12-11T23:24:13.544Z,101109.91
2022-12-11T23:26:40.240Z,101116.59
2022-12-11T23:29:07.194Z,101114.09
2022-12-11T23:31:36.221Z,101103.81
2022-12-11T23:34:02.779Z,101118.19
2022-12-11T23:36:30.236Z,101117.47
2022-12-11T23:38:59.305Z,101104.44
2022-12-11T23:41:25.955Z,101119.59
2022-12-11T23:43:52.751Z,101112.63
2022-12-11T23:46:22.955Z,101111.84
2022-12-11T23:48:50.507Z,101117.44
2022-12-11T23:51:18.901Z,101109.63
2022-12-11T23:53:48.364Z,101120.59
2022-12-11T23:56:19.467Z,101123.38
2022-12-11T23:58:46.880Z,101117.34
